Time;durP1;ratioP1;P1;durP2;ratioP2;P2;SDS_P1;SDS_P2;PMS_P1;PMS_P2;Temp;Humidity;BMP_temperature;BMP_pressure;BME280_temperature;BME280_humidity;BME280_pressure;Samples;Min_cycle;Max_cycle;Signal;HPM_P1;HPM_P2
2021/11/14 00:01:30;;;;;;;;;25.50;22.50;;;;;11.06;70.21;101478.53;146610;571;45020;-73
2021/11/14 00:04:04;;;;;;;;;38.25;32.50;;;;;11.04;70.61;101476.63;146606;590;46016;-72
2021/11/14 00:06:38;;;;;;;;;43.25;37.25;;;;;11.02;70.58;101471.34;146608;626;45020;-71
2021/11/14 00:09:13;;;;;;;;;30.75;27.50;;;;;10.96;70.13;101459.69;146610;601;45034;-71
2021/11/14 00:11:49;;;;;;;;;25.00;22.25;;;;;10.94;70.17;101466.50;146609;622;46012;-72
2021/11/14 00:14:23;;;;;;;;;31.25;29.50;;;;;10.94;70.10;101467.41;146607;679;46016;-71
2021/11/14 00:16:57;;;;;;;;;44.25;36.50;;;;;10.93;70.03;101467.28;146608;670;45046;-71
2021/11/14 00:19:31;;;;;;;;;35.50;30.00;;;;;10.95;70.59;101478.66;146607;592;46016;-72
2021/11/14 00:22:05;;;;;;;;;34.50;30.25;;;;;10.92;70.40;101470.69;146609;564;46020;-69
2021/11/14 00:24:39;;;;;;;;;33.50;29.75;;;;;10.91;70.42;101472.41;146604;585;46016;-70
2021/11/14 00:27:13;;;;;;;;;32.25;28.00;;;;;10.94;70.89;101474.28;146608;611;46020;-69
2021/11/14 00:29:49;;;;;;;;;42.00;35.00;;;;;10.95;70.57;101473.47;146607;595;46016;-71
2021/11/14 00:32:23;;;;;;;;;41.25;35.00;;;;;10.97;70.32;101471.88;146613;602;45024;-71
2021/11/14 00:34:58;;;;;;;;;48.00;38.25;;;;;10.97;70.60;101477.06;146607;585;46021;-71
2021/11/14 00:37:34;;;;;;;;;37.75;30.75;;;;;10.95;70.72;101468.28;146610;633;45020;-70
2021/11/14 00:40:13;;;;;;;;;51.25;41.50;;;;;10.93;71.34;101475.06;146610;570;45017;-71
2021/11/14 00:42:47;;;;;;;;;53.75;41.25;;;;;10.90;70.94;101474.88;146612;573;45020;-73
2021/11/14 00:45:21;;;;;;;;;43.25;37.50;;;;;10.89;71.55;101473.09;146605;575;46016;-73
2021/11/14 00:47:56;;;;;;;;;37.00;32.75;;;;;10.85;70.86;101472.91;146608;585;47010;-72
2021/11/14 00:50:31;;;;;;;;;38.25;33.75;;;;;10.81;71.68;101470.00;146607;634;45016;-73
2021/11/14 00:53:05;;;;;;;;;45.00;36.75;;;;;10.76;71.91;101461.97;146609;564;46010;-73
2021/11/14 00:55:39;;;;;;;;;43.25;36.25;;;;;10.70;71.83;101458.97;146610;595;45034;-74
2021/11/14 00:58:13;;;;;;;;;42.50;34.75;;;;;10.67;71.07;101460.50;146609;569;46020;-73
2021/11/14 01:00:47;;;;;;;;;45.25;36.75;;;;;10.66;71.05;101463.91;146606;630;45042;-73
2021/11/14 01:03:21;;;;;;;;;40.50;34.25;;;;;10.68;71.65;101462.28;146611;648;45021;-74
2021/11/14 01:05:56;;;;;;;;;44.25;36.00;;;;;10.66;71.26;101445.75;146609;706;45016;-74
2021/11/14 01:08:31;;;;;;;;;40.50;33.75;;;;;10.66;71.17;101453.53;146608;579;46014;-74
2021/11/14 01:11:06;;;;;;;;;33.50;31.25;;;;;10.62;71.62;101449.81;146607;567;46012;-71
2021/11/14 01:13:41;;;;;;;;;33.00;30.75;;;;;10.60;71.05;101444.56;146608;566;46010;-72
2021/11/14 01:16:18;;;;;;;;;36.25;32.50;;;;;10.59;70.96;101440.19;146609;614;45017;-73
2021/11/14 01:18:52;;;;;;;;;33.25;30.50;;;;;10.58;70.85;101453.03;146609;606;46021;-74
2021/11/14 01:21:28;;;;;;;;;32.75;30.75;;;;;10.41;70.72;101444.19;146606;570;45913;-75
2021/11/14 01:24:02;;;;;;;;;33.00;29.50;;;;;10.56;71.12;101467.59;146610;602;45021;-74
2021/11/14 01:26:36;;;;;;;;;35.50;32.25;;;;;10.53;70.90;101464.78;146609;604;46014;-75
2021/11/14 01:29:10;;;;;;;;;37.50;32.25;;;;;10.51;71.09;101469.00;146609;617;45020;-75
2021/11/14 01:31:44;;;;;;;;;38.75;32.50;;;;;10.49;71.43;101478.38;146608;565;45020;-72
2021/11/14 01:34:18;;;;;;;;;39.75;34.50;;;;;10.43;71.37;101481.47;146608;642;46012;-74
2021/11/14 01:36:52;;;;;;;;;40.75;35.50;;;;;10.39;71.17;101485.56;146605;595;46016;-72
2021/11/14 01:39:26;;;;;;;;;48.00;37.50;;;;;10.37;71.36;101494.97;146609;685;45021;-73
2021/11/14 01:42:00;;;;;;;;;45.50;37.25;;;;;10.35;71.94;101493.06;146607;711;45028;-73
2021/11/14 01:44:34;;;;;;;;;44.00;37.50;;;;;10.30;71.56;101492.75;146612;579;45027;-71
2021/11/14 01:47:08;;;;;;;;;47.75;38.00;;;;;10.26;71.77;101492.44;146609;615;46012;-72
2021/11/14 01:49:42;;;;;;;;;43.00;35.50;;;;;10.21;72.75;101484.34;146610;565;46010;-73
2021/11/14 01:52:24;;;;;;;;;48.50;36.25;;;;;10.11;72.58;101485.44;146606;610;45020;-70
2021/11/14 01:54:58;;;;;;;;;43.25;36.75;;;;;10.06;73.38;101483.34;146612;574;45020;-69
2021/11/14 01:57:32;;;;;;;;;42.25;35.75;;;;;10.03;73.02;101481.47;146605;620;45020;-71
2021/11/14 02:00:16;;;;;;;;;42.25;34.00;;;;;10.00;72.63;101476.09;146608;565;46020;-72
2021/11/14 02:02:50;;;;;;;;;33.75;31.25;;;;;10.00;72.58;101476.09;146610;564;45014;-72
2021/11/14 02:05:25;;;;;;;;;41.00;34.50;;;;;10.03;72.13;101477.97;146611;579;46010;-72
2021/11/14 02:08:03;;;;;;;;;39.75;34.50;;;;;10.06;72.87;101472.97;146608;581;46012;-72
2021/11/14 02:10:38;;;;;;;;;35.25;31.75;;;;;10.04;73.01;101472.00;146609;566;46012;-74
2021/11/14 02:13:12;;;;;;;;;41.00;34.00;;;;;10.02;72.50;101474.47;146607;610;45016;-70
2021/11/14 02:15:48;;;;;;;;;40.50;33.00;;;;;10.03;72.29;101471.13;146608;579;45021;-71
2021/11/14 02:18:23;;;;;;;;;44.25;35.25;;;;;10.07;72.93;101469.62;146607;626;46016;-71
2021/11/14 02:20:58;;;;;;;;;40.00;33.00;;;;;10.08;73.17;101456.75;146610;663;45020;-71
2021/11/14 02:23:32;;;;;;;;;36.25;33.00;;;;;10.10;72.86;101455.16;146610;601;45016;-71
2021/11/14 02:26:06;;;;;;;;;35.00;32.00;;;;;10.12;72.87;101453.56;146609;595;45020;-71
2021/11/14 02:28:40;;;;;;;;;34.00;31.50;;;;;10.15;72.51;101455.44;146607;585;46016;-72
2021/11/14 02:31:15;;;;;;;;;40.50;32.00;;;;;10.14;73.01;101451.97;146609;574;45021;-73
2021/11/14 02:33:53;;;;;;;;;34.00;32.00;;;;;10.15;72.29;101458.94;146607;593;46012;-72
2021/11/14 02:36:28;;;;;;;;;37.75;33.25;;;;;10.23;72.09;101462.03;146610;564;45048;-70
2021/11/14 02:39:02;;;;;;;;;44.00;33.75;;;;;10.26;72.55;101467.44;146608;669;46012;-69
2021/11/14 02:41:36;;;;;;;;;48.75;38.50;;;;;10.29;72.71;101472.81;146613;604;45020;-69
2021/11/14 02:44:10;;;;;;;;;44.75;37.25;;;;;10.29;72.37;101475.41;146607;605;45041;-70
2021/11/14 02:46:44;;;;;;;;;48.25;35.00;;;;;10.28;73.43;101476.22;146611;655;45014;-70
2021/11/14 02:49:19;;;;;;;;;45.00;36.00;;;;;10.24;73.26;101475.88;146607;584;46012;-70
2021/11/14 02:51:53;;;;;;;;;39.50;33.50;;;;;10.17;73.35;101478.06;146606;564;46020;-72
2021/11/14 02:54:27;;;;;;;;;42.75;36.00;;;;;10.14;73.46;101475.28;146607;625;46012;-74
2021/11/14 02:57:01;;;;;;;;;38.25;33.00;;;;;10.12;72.63;101474.31;146610;582;45020;-73
2021/11/14 02:59:36;;;;;;;;;39.75;33.50;;;;;10.10;73.12;101473.31;146607;587;46012;-80
2021/11/14 03:02:10;;;;;;;;;34.75;30.25;;;;;10.09;72.69;101471.53;146613;579;45021;-72
2021/11/14 03:04:44;;;;;;;;;37.25;33.25;;;;;10.11;73.13;101471.59;146607;575;45913;-72
2021/11/14 03:07:18;;;;;;;;;41.00;32.75;;;;;10.11;72.91;101466.41;146610;600;45021;-81
2021/11/14 03:09:52;;;;;;;;;38.50;32.75;;;;;10.12;72.67;101473.38;146610;581;45016;-78
2021/11/14 03:12:26;;;;;;;;;37.25;33.50;;;;;10.14;72.54;101464.91;146611;594;45020;-77
2021/11/14 03:15:02;;;;;;;;;35.50;30.25;;;;;10.17;73.13;101469.41;146607;582;46012;-75
2021/11/14 03:17:36;;;;;;;;;30.75;28.75;;;;;10.18;72.75;101469.50;146606;565;47014;-75
2021/11/14 03:20:11;;;;;;;;;33.50;30.00;;;;;10.18;72.52;101469.50;146606;665;46914;-75
2021/11/14 03:22:45;;;;;;;;;40.50;31.50;;;;;10.17;73.78;101474.59;146608;629;46021;-76
2021/11/14 03:25:24;;;;;;;;;34.50;32.75;;;;;10.16;73.02;101478.00;146609;599;46012;-72
2021/11/14 03:27:59;;;;;;;;;40.75;33.25;;;;;10.14;72.75;101477.87;146607;566;46020;-72
2021/11/14 03:30:34;;;;;;;;;37.25;30.75;;;;;10.13;73.46;101472.59;146607;583;46020;-72
2021/11/14 03:33:13;;;;;;;;;42.50;35.00;;;;;10.13;73.52;101475.19;146609;574;45047;-72
2021/11/14 03:35:51;;;;;;;;;39.00;34.00;;;;;10.11;73.98;101479.38;146608;626;46012;-72
2021/11/14 03:38:38;;;;;;;;;34.75;30.50;;;;;10.13;73.05;101485.56;146611;588;45028;-73
2021/11/14 03:41:16;;;;;;;;;39.50;33.00;;;;;10.15;73.45;101489.12;146609;569;45016;-71
2021/11/14 03:43:50;;;;;;;;;41.75;35.25;;;;;10.15;73.28;101487.44;146610;603;45021;-73
2021/11/14 03:46:27;;;;;;;;;35.75;32.75;;;;;10.14;72.95;101487.34;146606;666;46914;-73
2021/11/14 03:49:03;;;;;;;;;46.00;35.25;;;;;10.15;73.28;101486.53;146609;605;45020;-73
2021/11/14 03:51:37;;;;;;;;;41.25;34.50;;;;;10.14;73.35;101487.34;146608;566;45017;-73
2021/11/14 03:54:11;;;;;;;;;44.25;36.25;;;;;10.12;73.22;101482.09;146609;606;45020;-73
2021/11/14 03:56:45;;;;;;;;;42.75;34.75;;;;;10.11;73.31;101477.69;146606;697;46914;-72
2021/11/14 03:59:19;;;;;;;;;44.75;35.50;;;;;10.10;73.37;101468.13;146610;679;45021;-72
2021/11/14 04:01:53;;;;;;;;;42.75;35.25;;;;;10.09;73.43;101468.94;146607;565;46012;-72
2021/11/14 04:04:27;;;;;;;;;44.25;36.50;;;;;10.08;74.00;101469.69;146610;595;45020;-72
2021/11/14 04:07:01;;;;;;;;;40.50;35.00;;;;;10.06;73.47;101468.72;146607;578;45017;-72
2021/11/14 04:09:35;;;;;;;;;38.50;33.00;;;;;10.07;73.19;101469.62;146607;583;46020;-75
2021/11/14 04:12:10;;;;;;;;;36.25;30.50;;;;;10.06;73.93;101473.91;146604;626;46016;-75
2021/11/14 04:14:49;;;;;;;;;41.00;35.25;;;;;10.06;73.12;101473.91;146609;601;46014;-74
2021/11/14 04:17:23;;;;;;;;;40.25;34.75;;;;;10.08;73.28;101472.28;146606;601;45020;-74
2021/11/14 04:19:57;;;;;;;;;36.00;34.00;;;;;10.08;72.94;101474.88;146611;630;46020;-71
2021/11/14 04:22:31;;;;;;;;;40.50;34.00;;;;;10.07;73.19;101480.87;146607;621;46016;-70
2021/11/14 04:25:05;;;;;;;;;35.50;33.50;;;;;10.09;72.96;101481.88;146609;701;46020;-75
2021/11/14 04:27:40;;;;;;;;;34.00;31.25;;;;;10.09;72.59;101489.66;146606;594;46020;-70
2021/11/14 04:30:14;;;;;;;;;35.25;32.00;;;;;10.13;72.66;101489.06;146608;654;45023;-71
2021/11/14 04:32:49;;;;;;;;;39.00;33.75;;;;;10.15;73.14;101495.19;146610;591;46012;-72
2021/11/14 04:35:24;;;;;;;;;35.75;34.00;;;;;10.14;73.62;101497.72;146607;656;45021;-69
2021/11/14 04:37:58;;;;;;;;;45.25;33.00;;;;;10.09;73.66;101501.69;146606;633;46914;-70
2021/11/14 04:40:36;;;;;;;;;44.50;35.00;;;;;10.03;74.18;101497.03;146607;602;46010;-70
2021/11/14 04:43:12;;;;;;;;;39.25;33.25;;;;;9.95;74.03;101503.38;146607;697;45020;-70
2021/11/14 04:45:52;;;;;;;;;40.00;34.75;;;;;8.77;73.35;101297.09;146609;591;46012;-70
2021/11/14 04:48:28;;;;;;;;;39.00;33.25;;;;;9.89;73.58;101502.97;146612;600;45914;-70
2021/11/14 04:51:02;;;;;;;;;37.00;31.75;;;;;9.87;74.33;101497.69;146612;651;46021;-69
2021/11/14 04:53:36;;;;;;;;;42.00;35.00;;;;;9.87;73.75;101499.38;146608;585;46016;-69
2021/11/14 04:56:10;;;;;;;;;42.50;34.50;;;;;9.88;73.72;101506.38;146614;650;45020;-70
2021/11/14 04:58:44;;;;;;;;;45.00;33.25;;;;;9.86;73.92;101502.78;146613;636;45914;-72
2021/11/14 05:01:18;;;;;;;;;45.00;36.00;;;;;9.83;74.20;101507.75;146614;607;45020;-73
2021/11/14 05:03:52;;;;;;;;;40.50;34.25;;;;;9.74;73.61;101505.44;146610;589;46016;-72
2021/11/14 05:06:26;;;;;;;;;49.00;39.25;;;;;9.76;74.02;101498.69;146615;565;45021;-74
2021/11/14 05:09:00;;;;;;;;;38.75;34.25;;;;;9.77;74.37;101513.41;146610;593;46016;-73
2021/11/14 05:11:34;;;;;;;;;45.75;37.50;;;;;9.76;74.36;101510.75;146615;586;45020;-71
2021/11/14 05:14:08;;;;;;;;;43.00;35.25;;;;;9.77;73.28;101515.13;146612;625;45017;-70
2021/11/14 05:16:42;;;;;;;;;44.25;35.75;;;;;9.76;73.54;101508.16;146613;622;45020;-77
2021/11/14 05:19:17;;;;;;;;;49.25;39.25;;;;;9.85;73.86;101522.59;146611;587;46013;-73
2021/11/14 05:21:51;;;;;;;;;48.50;39.00;;;;;9.86;73.62;101524.38;146616;633;45020;-73
2021/11/14 05:24:25;;;;;;;;;39.25;34.25;;;;;9.91;73.41;101527.31;146614;569;45016;-74
2021/11/14 05:26:59;;;;;;;;;46.00;36.75;;;;;9.97;73.61;101535.50;146615;628;45021;-75
2021/11/14 05:29:33;;;;;;;;;44.25;34.75;;;;;10.00;73.63;101540.88;146610;617;45016;-75
2021/11/14 05:32:08;;;;;;;;;46.00;35.50;;;;;10.06;74.38;101543.88;146613;586;45014;-74
2021/11/14 05:34:42;;;;;;;;;41.00;34.75;;;;;10.07;74.47;101537.88;146607;580;45017;-72
2021/11/14 05:37:16;;;;;;;;;47.50;38.25;;;;;10.08;74.39;101539.66;146611;710;45020;-72
2021/11/14 05:39:50;;;;;;;;;45.75;36.75;;;;;10.06;74.23;101535.16;146607;569;46016;-74
2021/11/14 05:42:24;;;;;;;;;43.25;35.25;;;;;10.11;74.50;101541.56;146610;662;46012;-75
2021/11/14 05:44:59;;;;;;;;;47.50;36.75;;;;;10.13;74.27;101537.41;146609;658;45016;-74
2021/11/14 05:47:33;;;;;;;;;43.00;36.25;;;;;10.13;73.90;101527.91;146610;576;45020;-74
2021/11/14 05:50:10;;;;;;;;;43.00;35.00;;;;;10.23;73.67;101536.31;146608;574;45021;-74
2021/11/14 05:52:44;;;;;;;;;46.75;37.00;;;;;10.27;73.81;101534.03;146611;727;45014;-74
2021/11/14 05:55:18;;;;;;;;;46.75;37.00;;;;;10.33;73.90;101534.44;146609;563;46012;-72
2021/11/14 05:58:15;;;;;;;;;41.75;36.25;;;;;10.36;73.62;101545.00;146613;642;45021;-72
2021/11/14 06:01:05;;;;;;;;;42.50;34.75;;;;;10.42;73.36;101544.50;146606;574;46016;-72
2021/11/14 06:04:00;;;;;;;;;39.00;34.50;;;;;10.49;73.54;101550.97;146605;564;46020;-73
2021/11/14 06:06:34;;;;;;;;;40.00;35.25;;;;;10.56;73.26;101553.16;146607;671;45021;-74
2021/11/14 06:09:09;;;;;;;;;44.75;35.75;;;;;10.56;73.94;101548.91;146609;588;46020;-73
2021/11/14 06:11:43;;;;;;;;;46.00;37.50;;;;;10.58;73.79;101544.69;146606;570;46017;-76
2021/11/14 06:14:17;;;;;;;;;52.00;41.50;;;;;10.63;74.13;101558.84;146610;575;46012;-74
2021/11/14 06:16:51;;;;;;;;;56.00;44.25;;;;;10.65;73.55;101553.75;146607;615;46016;-75
2021/11/14 06:19:24;;;;;;;;;49.25;39.50;;;;;9.63;73.47;101374.38;146609;690;46021;-73
2021/11/14 06:21:58;;;;;;;;;52.75;43.25;;;;;10.74;73.91;101562.13;146610;625;46016;-70
2021/11/14 06:24:33;;;;;;;;;53.25;43.25;;;;;10.81;73.71;101573.78;146611;651;45020;-69
2021/11/14 06:27:07;;;;;;;;;56.50;46.00;;;;;10.85;73.94;101571.50;146611;621;45025;-72
2021/11/14 06:29:41;;;;;;;;;52.50;43.50;;;;;10.92;73.23;101571.88;146609;663;46020;-76
2021/11/14 06:32:15;;;;;;;;;53.75;43.50;;;;;10.96;73.33;101574.75;146606;720;46020;-69
2021/11/14 06:34:50;;;;;;;;;54.00;42.50;;;;;11.04;72.88;101570.06;146609;584;46021;-71
2021/11/14 06:37:23;;;;;;;;;55.25;43.50;;;;;11.07;72.63;101570.25;146607;633;46016;-71
2021/11/14 06:39:57;;;;;;;;;59.25;45.50;;;;;11.13;72.60;101577.53;146614;649;46012;-70
2021/11/14 06:42:34;;;;;;;;;57.25;45.00;;;;;11.19;72.37;101584.00;146607;658;45914;-70
2021/11/14 06:45:09;;;;;;;;;58.50;47.00;;;;;11.25;72.32;101581.78;146609;580;46014;-70
2021/11/14 06:47:44;;;;;;;;;60.00;48.50;;;;;11.31;72.11;101578.69;146611;613;45035;-70
2021/11/14 06:50:18;;;;;;;;;57.00;45.00;;;;;11.39;72.58;101571.34;146612;603;45049;-71
2021/11/14 06:52:52;;;;;;;;;64.25;48.00;;;;;11.44;71.73;101572.53;146610;608;45016;-71
2021/11/14 06:55:26;;;;;;;;;57.75;46.50;;;;;11.47;71.45;101576.22;146613;565;45021;-71
2021/11/14 06:58:01;;;;;;;;;63.00;49.50;;;;;11.53;71.40;101578.31;146610;595;45021;-73
2021/11/14 07:00:36;;;;;;;;;62.50;47.00;;;;;11.58;70.46;101584.66;146610;619;46014;-74
2021/11/14 07:03:10;;;;;;;;;64.75;48.75;;;;;11.65;70.68;101585.91;146605;589;46018;-73
2021/11/14 07:05:44;;;;;;;;;79.00;64.25;;;;;11.72;70.62;101585.50;146610;651;46010;-73
2021/11/14 07:08:18;;;;;;;;;127.67;106.33;;;;;11.76;70.42;101579.69;146608;592;46018;-74
2021/11/14 07:10:52;;;;;;;;;137.00;118.00;;;;;11.81;70.22;101570.47;146618;604;45021;-73
2021/11/14 07:13:26;;;;;;;;;81.00;68.00;;;;;11.87;70.48;101575.13;146610;590;46016;-73
2021/11/14 07:16:00;;;;;;;;;77.00;63.75;;;;;11.91;70.37;101565.03;146607;604;46010;-72
2021/11/14 07:18:34;;;;;;;;;73.00;58.75;;;;;11.98;70.67;101566.28;146610;576;45017;-71
2021/11/14 07:21:08;;;;;;;;;69.50;53.25;;;;;12.06;70.05;101569.34;146609;569;46010;-72
2021/11/14 07:23:42;;;;;;;;;68.25;53.00;;;;;11.06;69.82;101382.50;146605;572;46016;-72
2021/11/14 07:26:16;;;;;;;;;71.00;55.25;;;;;12.21;69.50;101562.41;146611;618;45020;-69
2021/11/14 07:28:50;;;;;;;;;73.50;60.25;;;;;12.30;69.20;101570.75;146610;636;45016;-68
2021/11/14 07:31:24;;;;;;;;;75.25;65.00;;;;;12.37;69.27;101567.72;146611;672;45020;-68
2021/11/14 07:33:58;;;;;;;;;80.00;65.00;;;;;12.45;69.15;101563.81;146606;631;46016;-68
2021/11/14 07:36:32;;;;;;;;;82.67;71.67;;;;;12.54;69.05;101558.25;146607;573;46014;-68
2021/11/14 07:39:10;;;;;;;;;80.67;71.00;;;;;12.61;68.42;101562.09;146607;650;45914;-72
2021/11/14 07:41:45;;;;;;;;;78.67;67.00;;;;;12.66;68.69;101566.75;146615;576;45021;-70
2021/11/14 07:44:19;;;;;;;;;77.75;66.25;;;;;12.71;68.20;101559.22;146607;620;46012;-70
2021/11/14 07:46:53;;;;;;;;;76.00;56.75;;;;;12.77;68.62;101562.13;146611;645;45014;-71
2021/11/14 07:49:27;;;;;;;;;80.75;69.50;;;;;12.80;68.44;101544.09;146608;566;46012;-70
2021/11/14 07:52:01;;;;;;;;;78.75;63.50;;;;;12.90;68.20;101558.53;146608;664;45020;-70
2021/11/14 07:54:39;;;;;;;;;75.75;62.00;;;;;12.95;67.95;101550.12;146607;601;46914;-70
2021/11/14 07:57:13;;;;;;;;;70.25;55.00;;;;;13.03;67.16;101541.87;146609;593;45035;-70
2021/11/14 07:59:47;;;;;;;;;70.50;56.25;;;;;13.06;67.37;101545.53;146608;577;45033;-70
2021/11/14 08:02:21;;;;;;;;;73.00;60.75;;;;;13.13;67.88;101551.97;146609;571;45021;-73
2021/11/14 08:04:55;;;;;;;;;72.25;56.00;;;;;13.20;67.48;101559.28;146604;585;46914;-73
2021/11/14 08:07:29;;;;;;;;;66.50;51.75;;;;;13.23;67.62;101554.25;146613;587;45032;-73
2021/11/14 08:10:03;;;;;;;;;69.50;55.75;;;;;13.29;67.01;101553.72;146605;662;46016;-75
2021/11/14 08:12:37;;;;;;;;;79.33;67.67;;;;;13.34;66.72;101558.38;146611;622;46010;-73
2021/11/14 08:15:13;;;;;;;;;78.33;69.00;;;;;13.40;66.91;101561.28;146606;640;46016;-71
2021/11/14 08:17:47;;;;;;;;;71.25;56.00;;;;;13.45;67.09;101558.91;146608;597;45021;-69
2021/11/14 08:20:22;;;;;;;;;71.00;54.75;;;;;13.50;66.90;101565.28;146610;631;46012;-73
2021/11/14 08:23:00;;;;;;;;;71.75;61.25;;;;;13.56;66.86;101569.91;146607;573;47010;-71
2021/11/14 08:25:34;;;;;;;;;70.75;54.00;;;;;13.62;66.76;101565.03;146608;596;46013;-72
2021/11/14 08:28:08;;;;;;;;;66.75;52.25;;;;;13.66;66.50;101563.47;146606;569;46020;-72
2021/11/14 08:30:42;;;;;;;;;65.75;51.50;;;;;13.67;66.72;101566.16;146609;660;46012;-72
2021/11/14 08:33:16;;;;;;;;;65.25;51.00;;;;;13.73;66.41;101576.88;146609;629;45021;-71
2021/11/14 08:35:50;;;;;;;;;63.50;50.25;;;;;13.76;65.94;101581.38;146608;591;45016;-74
2021/11/14 08:38:24;;;;;;;;;67.25;52.25;;;;;13.73;65.99;101568.19;146610;600;46020;-72
2021/11/14 08:40:58;;;;;;;;;67.50;51.75;;;;;13.73;66.04;101565.56;146610;570;45032;-74
2021/11/14 08:43:32;;;;;;;;;64.50;50.50;;;;;13.77;66.44;101554.47;146608;742;46020;-73
2021/11/14 08:46:07;;;;;;;;;61.50;48.50;;;;;13.81;66.25;101557.34;146608;577;46012;-70
2021/11/14 08:48:42;;;;;;;;;61.50;49.75;;;;;13.87;66.18;101556.75;146612;653;45029;-72
2021/11/14 08:51:16;;;;;;;;;60.50;48.00;;;;;13.95;66.47;101550.22;146605;606;46016;-69
2021/11/14 08:53:58;;;;;;;;;63.00;49.00;;;;;14.03;65.90;101551.50;146610;570;45020;-70
2021/11/14 08:56:36;;;;;;;;;64.25;51.00;;;;;14.13;65.90;101542.41;146607;627;46017;-71
2021/11/14 08:59:11;;;;;;;;;76.00;63.50;;;;;14.24;66.15;101540.38;146607;571;46020;-72
2021/11/14 09:01:45;;;;;;;;;80.75;68.50;;;;;14.32;65.56;101539.00;146609;585;46012;-73
2021/11/14 09:04:19;;;;;;;;;70.50;57.75;;;;;14.41;65.46;101541.19;146609;586;45916;-72
2021/11/14 09:06:54;;;;;;;;;76.00;58.25;;;;;14.50;65.55;101544.22;146603;575;46913;-72
2021/11/14 09:09:28;;;;;;;;;67.50;53.50;;;;;14.60;65.54;101551.72;146609;607;46020;-72
2021/11/14 09:12:02;;;;;;;;;71.00;56.25;;;;;14.66;65.27;101554.63;146606;578;48021;-72
2021/11/14 09:14:36;;;;;;;;;69.00;52.50;;;;;14.73;64.82;101550.56;146610;569;45020;-72
2021/11/14 09:17:11;;;;;;;;;63.75;49.75;;;;;14.78;64.30;101544.75;146610;564;45028;-72
2021/11/14 09:19:44;;;;;;;;;62.00;48.75;;;;;14.84;64.76;101551.09;146608;613;45020;-71
2021/11/14 09:22:18;;;;;;;;;67.50;51.00;;;;;14.93;64.26;101551.53;146608;566;46012;-71
2021/11/14 09:24:54;;;;;;;;;67.25;52.50;;;;;14.98;63.87;101550.94;146610;579;46012;-71
2021/11/14 09:27:28;;;;;;;;;59.00;47.00;;;;;15.04;64.01;101544.19;146607;594;45033;-72
2021/11/14 09:30:02;;;;;;;;;66.00;50.50;;;;;15.08;63.97;101552.25;146610;608;46020;-72
2021/11/14 09:32:36;;;;;;;;;62.50;49.50;;;;;15.11;63.53;101549.78;146607;589;46020;-70
2021/11/14 09:35:11;;;;;;;;;64.00;50.25;;;;;15.13;64.25;101540.28;146609;632;45020;-69
2021/11/14 09:37:45;;;;;;;;;65.25;51.75;;;;;15.18;63.73;101538.78;146609;565;45016;-73
2021/11/14 09:40:19;;;;;;;;;63.25;50.50;;;;;15.23;63.91;101533.75;146609;594;46014;-72
2021/11/14 09:42:53;;;;;;;;;70.25;54.75;;;;;15.29;63.82;101536.62;146604;602;46016;-73
2021/11/14 09:45:32;;;;;;;;;64.50;51.00;;;;;15.35;63.94;101536.91;146608;663;45020;-72
2021/11/14 09:48:09;;;;;;;;;66.50;52.50;;;;;15.40;63.76;101534.50;146605;565;46016;-72
2021/11/14 09:50:43;;;;;;;;;70.00;54.75;;;;;15.43;64.10;101529.44;146608;577;46020;-73
2021/11/14 09:53:17;;;;;;;;;72.00;56.50;;;;;15.44;63.77;101523.34;146607;654;46016;-73
2021/11/14 09:56:02;;;;;;;;;64.75;52.00;;;;;15.45;63.88;101527.75;146609;570;46021;-74
2021/11/14 09:58:38;;;;;;;;;33.75;27.00;;;;;15.43;64.13;101513.75;146605;620;46016;-73
2021/11/14 10:01:12;;;;;;;;;65.00;49.75;;;;;15.45;64.46;101506.84;146610;585;45021;-76
2021/11/14 10:03:46;;;;;;;;;53.00;43.75;;;;;15.47;64.48;101497.38;146605;565;46017;-77
2021/11/14 10:06:25;;;;;;;;;56.50;45.25;;;;;15.48;64.38;101494.84;146608;774;46020;-78
2021/11/14 10:08:59;;;;;;;;;57.50;46.00;;;;;15.54;65.00;101495.91;146607;614;46016;-77
2021/11/14 10:11:38;;;;;;;;;62.50;50.00;;;;;15.60;64.47;101493.56;146609;652;46020;-77
2021/11/14 10:14:13;;;;;;;;;56.00;46.50;;;;;15.63;63.06;101491.06;146608;647;46012;-78
2021/11/14 10:16:47;;;;;;;;;61.50;49.25;;;;;15.59;63.36;101495.28;146609;609;45021;-79
2021/11/14 10:19:21;;;;;;;;;55.00;44.00;;;;;15.53;63.32;101495.00;146607;578;45016;-76
2021/11/14 10:21:55;;;;;;;;;61.00;46.75;;;;;15.44;62.83;101484.16;146607;588;46020;-78
2021/11/14 10:24:30;;;;;;;;;62.00;50.75;;;;;14.51;63.44;101340.78;146608;645;46012;-76
2021/11/14 10:27:17;;;;;;;;;62.50;50.00;;;;;15.28;63.73;101498.28;146609;584;45020;-77
2021/11/14 10:29:53;;;;;;;;;70.75;56.00;;;;;15.20;63.72;101500.56;146607;626;45916;-77
2021/11/14 10:32:29;;;;;;;;;63.50;49.50;;;;;15.16;64.48;101500.34;146609;571;45032;-77
2021/11/14 10:35:04;;;;;;;;;62.50;47.75;;;;;15.13;63.94;101502.81;146606;593;46012;-75
2021/11/14 10:37:45;;;;;;;;;61.50;50.00;;;;;15.13;64.59;101505.44;146609;579;45021;-74
2021/11/14 10:40:31;;;;;;;;;64.75;50.00;;;;;15.08;64.99;101494.78;146608;581;46012;-75
2021/11/14 10:43:06;;;;;;;;;61.50;48.25;;;;;15.15;64.56;101499.44;146611;603;46020;-77
2021/11/14 10:45:44;;;;;;;;;61.00;49.00;;;;;15.14;64.43;101509.81;146607;623;46016;-75
2021/11/14 10:48:21;;;;;;;;;56.00;46.00;;;;;15.12;64.19;101501.91;146611;570;45020;-75
2021/11/14 10:51:00;;;;;;;;;56.00;44.50;;;;;15.11;64.22;101499.22;146607;626;46012;-75
2021/11/14 10:53:36;;;;;;;;;60.25;48.00;;;;;15.10;65.04;101498.34;146609;579;46020;-75
2021/11/14 10:56:14;;;;;;;;;57.75;46.75;;;;;15.12;64.96;101495.81;146610;577;46012;-76
2021/11/14 10:58:49;;;;;;;;;63.00;48.75;;;;;15.14;64.47;101488.91;146612;572;45020;-78
2021/11/14 11:01:23;;;;;;;;;64.75;49.50;;;;;15.16;64.44;101479.44;146607;642;45019;-75
2021/11/14 11:03:57;;;;;;;;;71.00;56.50;;;;;15.20;64.10;101481.34;146610;576;46010;-75
2021/11/14 11:06:33;;;;;;;;;69.25;55.25;;;;;15.17;64.25;101469.06;146608;571;46016;-75
2021/11/14 11:09:10;;;;;;;;;71.00;56.50;;;;;15.20;64.49;101460.44;146610;711;46020;-75
2021/11/14 11:11:48;;;;;;;;;70.25;55.50;;;;;15.21;64.96;101471.00;146605;628;46018;-75
2021/11/14 11:14:31;;;;;;;;;69.00;57.50;;;;;15.19;64.21;101472.62;146608;620;45020;-75
2021/11/14 11:17:05;;;;;;;;;70.50;59.00;;;;;15.18;64.71;101472.56;146608;627;46016;-75
2021/11/14 11:19:39;;;;;;;;;69.25;53.25;;;;;15.12;64.35;101459.25;146613;593;45014;-75
2021/11/14 11:22:14;;;;;;;;;66.50;51.75;;;;;15.19;64.49;101480.47;146605;648;46017;-75
2021/11/14 11:24:59;;;;;;;;;63.75;49.25;;;;;15.18;64.65;101494.37;146612;622;46014;-75
2021/11/14 11:27:33;;;;;;;;;60.50;48.25;;;;;15.17;64.06;101482.13;146611;580;45027;-75
2021/11/14 11:30:08;;;;;;;;;62.00;49.25;;;;;15.16;64.49;101475.09;146609;680;46020;-75
2021/11/14 11:32:42;;;;;;;;;65.00;51.25;;;;;15.13;64.67;101467.13;146608;661;46012;-75
2021/11/14 11:35:17;;;;;;;;;62.50;49.25;;;;;15.12;64.34;101464.47;146609;646;46022;-74
2021/11/14 11:37:51;;;;;;;;;68.00;51.00;;;;;15.11;64.54;101458.34;146610;565;45034;-75
2021/11/14 11:40:26;;;;;;;;;65.75;50.75;;;;;15.09;64.44;101454.78;146609;628;45020;-75
2021/11/14 11:43:01;;;;;;;;;65.50;50.00;;;;;15.10;64.88;101459.16;146608;573;45016;-73
2021/11/14 11:45:40;;;;;;;;;64.75;51.00;;;;;15.11;64.87;101454.81;146607;701;46010;-75